createdAt,value
2023-05-07T00:00:26.797Z,98601.25
2023-05-07T00:02:53.901Z,98592.13
2023-05-07T00:05:20.719Z,98612.50
2023-05-07T00:07:48.248Z,98609.84
2023-05-07T00:10:14.929Z,98606.69
2023-05-07T00:12:42.043Z,98621.31
2023-05-07T00:15:09.563Z,98598.25
2023-05-07T00:17:36.972Z,98608.28
2023-05-07T00:20:04.813Z,98608.91
2023-05-07T00:22:33.262Z,98615.06
2023-05-07T00:25:00.167Z,98616.75
2023-05-07T00:27:26.892Z,98597.91
2023-05-07T00:29:53.428Z,98620.22
2023-05-07T00:32:20.472Z,98614.31
2023-05-07T00:34:50.238Z,98618.53
2023-05-07T00:37:17.114Z,98617.56
2023-05-07T00:39:43.631Z,98601.66
2023-05-07T00:42:10.236Z,98617.16
2023-05-07T00:44:36.872Z,98613.06
2023-05-07T00:47:08.308Z,98629.00
2023-05-07T00:49:43.691Z,98627.22
2023-05-07T00:52:14.012Z,98628.91
2023-05-07T00:54:41.762Z,98624.09
2023-05-07T00:57:10.546Z,98628.06
2023-05-07T00:59:37.157Z,98630.56
2023-05-07T01:02:03.874Z,98623.63
2023-05-07T01:04:30.652Z,98618.31
2023-05-07T01:06:59.381Z,98623.63
2023-05-07T01:09:27.498Z,98618.03
2023-05-07T01:11:56.189Z,98614.50
2023-05-07T01:14:23.214Z,98643.00
2023-05-07T01:16:52.011Z,98634.44
2023-05-07T01:19:21.154Z,98636.75
2023-05-07T01:21:50.106Z,98636.75
2023-05-07T01:24:19.320Z,98639.38
2023-05-07T01:26:45.994Z,98621.53
2023-05-07T01:29:14.928Z,98643.81
2023-05-07T01:31:43.722Z,98646.47
2023-05-07T01:34:12.342Z,98644.91
2023-05-07T01:36:40.718Z,98652.63
2023-05-07T01:39:08.861Z,98641.19
2023-05-07T01:41:36.209Z,98637.22
2023-05-07T01:44:04.575Z,98648.16
2023-05-07T01:46:32.436Z,98632.34
2023-05-07T01:48:59.664Z,98653.47
2023-05-07T01:51:27.161Z,98621.50
2023-05-07T01:53:54.287Z,98631.50
2023-05-07T01:56:22.009Z,98650.00
2023-05-07T01:58:50.567Z,98650.81
2023-05-07T02:01:17.151Z,98652.16
2023-05-07T02:03:44.318Z,98656.13
2023-05-07T02:06:20.271Z,98647.69
2023-05-07T02:08:48.411Z,98643.94
2023-05-07T02:11:16.347Z,98655.41
2023-05-07T02:13:43.348Z,98662.28
2023-05-07T02:16:11.789Z,98634.13
2023-05-07T02:21:02.927Z,98663.13
2023-05-07T02:25:50.957Z,98662.28
2023-05-07T02:28:18.210Z,98654.56
2023-05-07T02:31:01.875Z,98662.38
2023-05-07T02:33:30.390Z,98664.94
2023-05-07T02:35:57.117Z,98671.94
2023-05-07T02:38:24.361Z,98668.53
2023-05-07T02:40:50.849Z,98669.38
2023-05-07T02:43:17.480Z,98647.94
2023-05-07T02:45:47.207Z,98669.28
2023-05-07T02:48:14.779Z,98667.59
2023-05-07T02:50:41.677Z,98673.72
2023-05-07T02:53:08.600Z,98666.97
2023-05-07T02:55:35.092Z,98669.50
2023-05-07T02:58:01.930Z,98668.75
2023-05-07T03:00:31.899Z,98675.41
2023-05-07T03:03:11.910Z,98672.00
2023-05-07T03:05:38.685Z,98679.00
2023-05-07T03:08:05.507Z,98674.91
2023-05-07T03:10:32.281Z,98682.53
2023-05-07T03:12:58.957Z,98684.31
2023-05-07T03:15:25.775Z,98677.69
2023-05-07T03:17:53.361Z,98686.00
2023-05-07T03:20:20.035Z,98686.97
2023-05-07T03:22:46.689Z,98679.34
2023-05-07T03:25:13.613Z,98690.47
2023-05-07T03:27:40.185Z,98701.16
2023-05-07T03:30:08.715Z,98702.88
2023-05-07T03:32:36.345Z,98689.25
2023-05-07T03:35:06.795Z,98709.97
2023-05-07T03:37:33.967Z,98694.00
2023-05-07T03:40:00.760Z,98702.25
2023-05-07T03:42:27.996Z,98720.59
2023-05-07T03:44:54.654Z,98725.88
2023-05-07T03:47:21.799Z,98722.38
2023-05-07T03:49:50.255Z,98718.41
2023-05-07T03:52:17.185Z,98725.16
2023-05-07T03:54:43.922Z,98721.53
2023-05-07T03:57:12.726Z,98723.31
2023-05-07T03:59:40.185Z,98725.97
2023-05-07T04:04:28.503Z,98733.34
2023-05-07T04:06:56.578Z,98744.53
2023-05-07T04:09:23.256Z,98731.66
2023-05-07T04:11:50.502Z,98742.00
2023-05-07T04:14:17.068Z,98745.50
2023-05-07T04:16:43.910Z,98746.47
2023-05-07T04:19:10.605Z,98733.88
2023-05-07T04:21:39.278Z,98744.03
2023-05-07T04:24:06.266Z,98752.94
2023-05-07T04:26:33.345Z,98742.06
2023-05-07T04:29:00.820Z,98756.34
2023-05-07T04:31:32.722Z,98715.16
2023-05-07T04:33:59.549Z,98768.63
2023-05-07T04:36:28.499Z,98770.66
2023-05-07T04:39:00.397Z,98779.22
2023-05-07T04:41:27.524Z,98778.41
2023-05-07T04:43:54.326Z,98775.97
2023-05-07T04:46:24.959Z,98779.34
2023-05-07T04:48:52.455Z,98782.94
2023-05-07T04:51:18.962Z,98783.69
2023-05-07T04:53:45.708Z,98787.50
2023-05-07T04:56:12.258Z,98778.28
2023-05-07T04:58:42.192Z,98784.47
2023-05-07T05:01:09.734Z,98782.03
2023-05-07T05:03:37.880Z,98804.16
2023-05-07T05:06:04.597Z,98800.63
2023-05-07T05:08:34.068Z,98798.41
2023-05-07T05:11:03.591Z,98813.88
2023-05-07T05:13:31.920Z,98807.75
2023-05-07T05:15:59.300Z,98814.88
2023-05-07T05:18:27.249Z,98810.41
2023-05-07T05:20:53.910Z,98813.06
2023-05-07T05:23:21.109Z,98817.63
2023-05-07T05:25:48.318Z,98817.94
2023-05-07T05:28:15.795Z,98819.41
2023-05-07T05:30:42.537Z,98802.59
2023-05-07T05:33:09.720Z,98829.09
2023-05-07T05:35:36.647Z,98793.03
2023-05-07T05:38:05.805Z,98829.38
2023-05-07T05:40:34.265Z,98805.09
2023-05-07T05:43:01.372Z,98851.19
2023-05-07T05:45:28.945Z,98830.41
2023-05-07T05:47:57.666Z,98867.97
2023-05-07T05:50:24.683Z,98845.22
2023-05-07T05:52:52.772Z,98845.38
2023-05-07T05:55:20.815Z,98875.16
2023-05-07T05:57:47.426Z,98870.81
2023-05-07T06:00:14.735Z,98875.03
2023-05-07T06:02:47.463Z,98876.94
2023-05-07T06:05:20.949Z,98867.88
2023-05-07T06:07:51.009Z,98882.25
2023-05-07T06:10:18.141Z,98885.03
2023-05-07T06:12:45.472Z,98885.03
2023-05-07T06:15:12.529Z,98820.25
2023-05-07T06:17:40.583Z,98862.28
2023-05-07T06:20:09.133Z,98891.16
2023-05-07T06:22:36.052Z,98888.63
2023-05-07T06:25:06.181Z,98887.78
2023-05-07T06:27:33.134Z,98871.59
2023-05-07T06:29:59.777Z,98897.53
2023-05-07T06:32:26.430Z,98892.22
2023-05-07T06:34:53.055Z,98896.56
2023-05-07T06:37:19.804Z,98892.13
2023-05-07T06:40:00.176Z,98882.94
2023-05-07T06:42:28.038Z,98903.69
2023-05-07T06:44:59.081Z,98898.38
2023-05-07T06:47:26.973Z,98894.63
2023-05-07T06:49:55.596Z,98900.09
2023-05-07T06:52:25.743Z,98895.94
2023-05-07T06:54:53.345Z,98906.22
2023-05-07T06:57:22.015Z,98908.03
2023-05-07T06:59:48.710Z,98915.97
2023-05-07T07:02:17.709Z,98914.16
2023-05-07T07:04:46.173Z,98917.66
2023-05-07T07:07:13.657Z,98920.31
2023-05-07T07:09:42.450Z,98909.53
2023-05-07T07:12:10.314Z,98923.06
2023-05-07T07:14:39.326Z,98910.09
2023-05-07T07:19:33.466Z,98934.63
2023-05-07T07:22:02.116Z,98923.50
2023-05-07T07:24:29.373Z,98933.78
2023-05-07T07:29:27.623Z,98942.56
2023-05-07T07:31:54.887Z,98954.03
2023-05-07T07:34:23.772Z,98954.03
2023-05-07T07:36:51.100Z,98954.97
2023-05-07T07:39:19.261Z,98952.44
2023-05-07T07:41:48.395Z,98960.41
2023-05-07T07:44:16.784Z,98946.09
2023-05-07T07:46:48.396Z,98968.97
2023-05-07T07:49:15.954Z,98968.00
2023-05-07T07:51:43.825Z,98968.97
2023-05-07T07:54:12.036Z,98967.16
2023-05-07T07:56:39.676Z,98974.28
2023-05-07T07:59:07.698Z,98973.41
2023-05-07T08:01:37.430Z,98971.63
2023-05-07T08:04:06.539Z,98970.75
2023-05-07T08:06:36.507Z,98974.38
2023-05-07T08:09:03.878Z,98983.81
2023-05-07T08:11:30.887Z,98979.47
2023-05-07T08:13:58.742Z,98981.25
2023-05-07T08:16:25.974Z,98992.72
2023-05-07T08:18:53.203Z,98994.50
2023-05-07T08:21:20.098Z,98998.44
2023-05-07T08:23:46.813Z,99006.06
2023-05-07T08:26:13.460Z,98984.78
2023-05-07T08:28:43.085Z,98985.00
2023-05-07T08:31:09.617Z,98991.13
2023-05-07T08:33:39.610Z,98979.28
2023-05-07T08:36:06.648Z,98988.22
2023-05-07T08:38:33.633Z,98984.06
2023-05-07T08:41:00.600Z,99001.09
2023-05-07T08:43:33.795Z,99024.72
2023-05-07T08:46:03.200Z,99008.72
2023-05-07T08:48:33.650Z,99022.59
2023-05-07T08:51:06.819Z,99018.50
2023-05-07T08:53:34.180Z,99033.59
2023-05-07T08:56:02.058Z,99020.41
2023-05-07T08:58:30.046Z,99017.22
2023-05-07T09:00:57.148Z,99041.78
2023-05-07T09:03:25.003Z,99040.84
2023-05-07T09:05:54.260Z,99040.84
2023-05-07T09:08:26.309Z,98978.66
2023-05-07T09:10:54.526Z,99032.16
2023-05-07T09:13:22.711Z,99033.84
2023-05-07T09:15:50.419Z,99059.50
2023-05-07T09:18:17.447Z,99066.59
2023-05-07T09:20:46.596Z,99066.69
2023-05-07T09:23:14.809Z,99070.19
2023-05-07T09:25:43.432Z,99072.00
2023-05-07T09:28:16.698Z,99074.75
2023-05-07T09:30:44.650Z,99075.78
2023-05-07T09:33:13.281Z,99082.72
2023-05-07T09:35:43.726Z,99085.38
2023-05-07T09:38:18.716Z,99079.41
2023-05-07T09:40:45.926Z,99081.97
2023-05-07T09:43:15.274Z,99067.66
2023-05-07T09:45:57.305Z,99071.34
2023-05-07T09:48:28.108Z,99085.78
2023-05-07T09:50:59.564Z,99088.31
2023-05-07T09:53:30.870Z,99090.03
2023-05-07T09:55:59.728Z,99075.81
2023-05-07T09:58:27.294Z,99101.44
2023-05-07T10:00:56.368Z,99101.69
2023-05-07T10:03:25.621Z,99075.47
2023-05-07T10:05:59.593Z,99085.00
2023-05-07T10:08:27.261Z,99057.78
2023-05-07T10:10:57.542Z,99107.06
2023-05-07T10:13:26.747Z,99093.53
2023-05-07T10:15:56.600Z,99109.72
2023-05-07T10:18:30.803Z,99098.69
2023-05-07T10:23:24.313Z,99102.41
2023-05-07T10:26:00.685Z,99126.34
2023-05-07T10:28:37.141Z,99116.72
2023-05-07T10:31:12.306Z,99118.84
2023-05-07T10:33:47.916Z,99114.91
2023-05-07T10:36:15.900Z,99126.78
2023-05-07T10:38:43.173Z,99120.53
2023-05-07T10:41:12.294Z,99134.50
2023-05-07T10:43:46.089Z,99145.09
2023-05-07T10:46:22.008Z,99140.84
2023-05-07T10:49:04.034Z,99153.16
2023-05-07T10:51:39.892Z,99154.09
2023-05-07T10:54:22.967Z,99153.28
2023-05-07T10:56:57.357Z,99152.31
2023-05-07T10:59:32.496Z,99162.91
2023-05-07T11:02:07.428Z,99155.09
2023-05-07T11:05:24.075Z,99156.75
2023-05-07T11:08:05.534Z,99158.56
2023-05-07T11:10:54.149Z,99155.91
2023-05-07T11:13:44.768Z,99157.72
2023-05-07T11:16:24.388Z,99161.31
2023-05-07T11:18:58.505Z,99156.88
2023-05-07T11:21:45.288Z,99156.97
2023-05-07T11:24:23.023Z,99156.75
2023-05-07T11:26:56.793Z,99153.28
2023-05-07T11:29:25.374Z,99134.69
2023-05-07T11:31:58.781Z,99165.56
2023-05-07T11:34:30.706Z,99156.09
2023-05-07T11:36:59.850Z,99157.09
2023-05-07T11:39:46.774Z,99164.69
2023-05-07T11:42:30.750Z,99139.16
2023-05-07T11:44:57.613Z,99109.56
2023-05-07T11:47:25.310Z,99141.91
2023-05-07T11:49:54.781Z,99155.38
2023-05-07T11:52:23.035Z,99168.41
2023-05-07T11:54:54.434Z,99154.53
2023-05-07T11:57:21.470Z,99168.63
2023-05-07T11:59:49.135Z,99181.22
2023-05-07T12:02:16.797Z,99187.41
2023-05-07T12:04:43.533Z,99169.47
2023-05-07T12:07:14.629Z,99182.94
2023-05-07T12:09:42.587Z,99162.69
2023-05-07T12:12:09.533Z,99160.88
2023-05-07T12:14:41.200Z,99160.69
2023-05-07T12:17:12.260Z,99190.78
2023-05-07T12:19:40.791Z,99188.25
2023-05-07T12:22:09.273Z,99182.28
2023-05-07T12:24:47.867Z,99191.75
2023-05-07T12:27:15.779Z,99186.88
2023-05-07T12:29:49.717Z,99176.88
2023-05-07T12:32:20.804Z,99198.00
2023-05-07T12:34:50.641Z,99194.16
2023-05-07T12:37:26.092Z,99198.59
2023-05-07T12:40:10.815Z,99213.03
2023-05-07T12:42:41.117Z,99196.81
2023-05-07T12:45:12.234Z,99220.56
2023-05-07T12:47:39.376Z,99207.00
2023-05-07T12:50:07.516Z,99191.94
2023-05-07T12:52:35.073Z,99216.72
2023-05-07T12:55:09.380Z,99200.41
2023-05-07T12:57:49.990Z,99210.50
2023-05-07T13:00:17.299Z,99209.66
2023-05-07T13:02:47.861Z,99213.38
2023-05-07T13:05:15.117Z,99219.38
2023-05-07T13:07:42.620Z,99214.94
2023-05-07T13:10:09.864Z,99220.31
2023-05-07T13:12:36.832Z,99226.38
2023-05-07T13:15:03.857Z,99219.59
2023-05-07T13:17:32.855Z,99228.19
2023-05-07T13:19:59.711Z,99223.84
2023-05-07T13:22:26.388Z,99212.91
2023-05-07T13:24:53.075Z,99226.38
2023-05-07T13:27:20.588Z,99224.56
2023-05-07T13:29:47.280Z,99220.31
2023-05-07T13:32:13.872Z,99223.63
2023-05-07T13:34:40.530Z,99231.56
2023-05-07T13:37:11.208Z,99228.91
2023-05-07T13:39:38.201Z,99214.31
2023-05-07T13:42:04.829Z,99232.31
2023-05-07T13:44:31.548Z,99221.09
2023-05-07T13:46:58.082Z,99234.97
2023-05-07T13:49:25.325Z,99227.31
2023-05-07T13:51:51.825Z,99229.78
2023-05-07T13:54:18.410Z,99238.47
2023-05-07T13:56:44.952Z,99231.50
2023-05-07T13:59:11.556Z,99236.16
2023-05-07T14:01:38.238Z,99216.31
2023-05-07T14:04:05.520Z,99224.03
2023-05-07T14:06:32.657Z,99237.72
2023-05-07T14:08:59.407Z,99233.38
2023-05-07T14:11:26.046Z,99242.16
2023-05-07T14:13:57.740Z,99248.41
2023-05-07T14:16:24.566Z,99244.50
2023-05-07T14:18:51.203Z,99249.47
2023-05-07T14:21:18.631Z,99250.44
2023-05-07T14:23:45.154Z,99234.31
2023-05-07T14:26:11.794Z,99259.34
2023-05-07T14:28:40.387Z,99262.19
2023-05-07T14:31:07.482Z,99253.56
2023-05-07T14:33:34.119Z,99271.81
2023-05-07T14:36:00.715Z,99261.63
2023-05-07T14:38:27.203Z,99265.03
2023-05-07T14:40:56.812Z,99273.00
2023-05-07T14:43:23.531Z,99273.81
2023-05-07T14:45:51.052Z,99283.59
2023-05-07T14:48:20.953Z,99278.47
2023-05-07T14:50:49.132Z,99285.47
2023-05-07T14:53:16.323Z,99280.56
2023-05-07T14:55:43.014Z,99285.66
2023-05-07T14:58:09.628Z,99286.72
2023-05-07T15:00:36.565Z,99291.06
2023-05-07T15:03:11.273Z,99295.53
2023-05-07T15:05:40.673Z,99280.97
2023-05-07T15:08:07.272Z,99293.81
2023-05-07T15:10:42.440Z,99289.47
2023-05-07T15:13:15.958Z,99284.47
2023-05-07T15:15:46.958Z,99291.28
2023-05-07T15:18:13.880Z,99293.94
2023-05-07T15:20:41.329Z,99294.88
2023-05-07T15:23:13.879Z,99300.16
2023-05-07T15:25:47.230Z,99295.91
2023-05-07T15:28:15.241Z,99284.13
2023-05-07T15:30:41.813Z,99300.34
2023-05-07T15:33:08.565Z,99301.69
2023-05-07T15:35:35.127Z,99312.00
2023-05-07T15:38:04.424Z,99302.34
2023-05-07T15:40:31.318Z,99305.97
2023-05-07T15:42:58.025Z,99313.03
2023-05-07T15:45:25.104Z,99310.50
2023-05-07T15:47:51.826Z,99318.34
2023-05-07T15:50:18.560Z,99310.50
2023-05-07T15:52:47.153Z,99314.09
2023-05-07T15:55:14.222Z,99292.75
2023-05-07T15:57:41.140Z,99295.00
2023-05-07T16:00:09.752Z,99300.97
2023-05-07T16:02:39.656Z,99308.91
2023-05-07T16:05:12.076Z,99303.78
2023-05-07T16:07:39.441Z,99305.72
2023-05-07T16:10:07.764Z,99315.25
2023-05-07T16:12:34.418Z,99317.78
2023-05-07T16:15:01.264Z,99317.91
2023-05-07T16:17:28.117Z,99315.25
2023-05-07T16:19:54.787Z,99319.69
2023-05-07T16:22:22.077Z,99312.34
2023-05-07T16:24:51.942Z,99321.59
2023-05-07T16:27:18.619Z,99317.13
2023-05-07T16:29:45.171Z,99310.13
2023-05-07T16:32:13.973Z,99315.00
2023-05-07T16:34:40.605Z,99328.78
2023-05-07T16:37:07.668Z,99328.13
2023-05-07T16:39:34.284Z,99327.94
2023-05-07T16:42:01.719Z,99327.94
2023-05-07T16:44:28.247Z,99321.22
2023-05-07T16:46:54.819Z,99331.59
2023-05-07T16:49:21.404Z,99332.47
2023-05-07T16:51:48.698Z,99328.13
2023-05-07T16:54:15.209Z,99317.13
2023-05-07T16:56:42.809Z,99325.66
2023-05-07T16:59:12.040Z,99324.72
2023-05-07T17:01:38.824Z,99327.56
2023-05-07T17:04:05.631Z,99333.59
2023-05-07T17:06:32.583Z,99340.59
2023-05-07T17:08:59.065Z,99346.00
2023-05-07T17:11:27.917Z,99344.19
2023-05-07T17:13:54.928Z,99343.34
2023-05-07T17:16:21.539Z,99339.88
2023-05-07T17:18:48.121Z,99347.81
2023-05-07T17:21:14.661Z,99352.13
2023-05-07T17:23:41.248Z,99349.59
2023-05-07T17:26:17.510Z,99344.41
2023-05-07T17:28:44.485Z,99329.69
2023-05-07T17:31:11.247Z,99340.13
2023-05-07T17:33:38.019Z,99337.47
2023-05-07T17:36:05.005Z,99344.53
2023-05-07T17:38:32.101Z,99350.81
2023-05-07T17:40:59.709Z,99342.94
2023-05-07T17:43:26.355Z,99339.34
2023-05-07T17:45:53.224Z,99347.28
2023-05-07T17:48:20.522Z,99361.41
2023-05-07T17:50:47.076Z,99367.63
2023-05-07T17:53:16.358Z,99361.47
2023-05-07T17:55:44.346Z,99370.28
2023-05-07T17:58:13.405Z,99364.97
2023-05-07T18:00:40.633Z,99375.47
2023-05-07T18:03:07.338Z,99387.75
2023-05-07T18:05:36.644Z,99379.81
2023-05-07T18:08:03.701Z,99378.91
2023-05-07T18:10:30.307Z,99386.75
2023-05-07T18:12:57.109Z,99377.44
2023-05-07T18:15:23.925Z,99382.41
2023-05-07T18:17:50.635Z,99390.22
2023-05-07T18:20:20.809Z,99387.59
2023-05-07T18:22:47.453Z,99399.88
2023-05-07T18:25:14.014Z,99387.09
2023-05-07T18:27:41.152Z,99399.78
2023-05-07T18:30:08.891Z,99391.75
2023-05-07T18:32:35.832Z,99395.25
2023-05-07T18:35:04.521Z,99402.34
2023-05-07T18:37:31.198Z,99392.59
2023-05-07T18:39:58.105Z,99398.84
2023-05-07T18:42:28.881Z,99397.13
2023-05-07T18:44:55.841Z,99413.00
2023-05-07T18:47:22.535Z,99396.84
2023-05-07T18:49:49.598Z,99408.75
2023-05-07T18:52:18.031Z,99408.94
2023-05-07T18:54:48.641Z,99421.94
2023-05-07T18:57:16.637Z,99399.78
2023-05-07T18:59:45.966Z,99419.34
2023-05-07T19:02:27.088Z,99429.94
2023-05-07T19:04:59.887Z,99419.44
2023-05-07T19:07:29.392Z,99430.69
2023-05-07T19:10:04.849Z,99428.91
2023-05-07T19:12:34.350Z,99437.72
2023-05-07T19:15:01.083Z,99435.16
2023-05-07T19:17:27.832Z,99431.53
2023-05-07T19:19:54.465Z,99428.06
2023-05-07T19:22:21.529Z,99436.00
2023-05-07T19:24:48.277Z,99427.22
2023-05-07T19:27:20.954Z,99429.88
2023-05-07T19:29:53.515Z,99438.66
2023-05-07T19:32:23.051Z,99437.81
2023-05-07T19:34:53.917Z,99437.81
2023-05-07T19:37:32.780Z,99422.09
2023-05-07T19:40:08.686Z,99427.41
2023-05-07T19:42:49.614Z,99437.81
2023-05-07T19:45:20.826Z,99439.59
2023-05-07T19:48:06.105Z,99440.53
2023-05-07T19:50:38.629Z,99443.09
2023-05-07T19:53:15.465Z,99422.44
2023-05-07T19:55:46.643Z,99449.34
2023-05-07T19:58:17.135Z,99444.97
2023-05-07T20:00:52.801Z,99443.28
2023-05-07T20:03:19.846Z,99444.97
2023-05-07T20:05:47.544Z,99443.16
2023-05-07T20:08:15.186Z,99444.16
2023-05-07T20:10:41.898Z,99440.19
2023-05-07T20:13:08.735Z,99449.47
2023-05-07T20:15:38.982Z,99447.63
2023-05-07T20:18:05.910Z,99445.91
2023-05-07T20:20:35.506Z,99444.16
2023-05-07T20:23:02.579Z,99434.06
2023-05-07T20:25:29.190Z,99457.41
2023-05-07T20:27:56.449Z,99437.75
2023-05-07T20:30:24.290Z,99455.72
2023-05-07T20:32:51.236Z,99452.13
2023-05-07T20:35:18.014Z,99457.41
2023-05-07T20:37:44.751Z,99457.53
2023-05-07T20:40:12.116Z,99451.47
2023-05-07T20:42:38.916Z,99450.50
2023-05-07T20:45:06.177Z,99452.31
2023-05-07T20:47:33.861Z,99454.97
2023-05-07T20:50:00.582Z,99457.63
2023-05-07T20:52:28.541Z,99463.03
2023-05-07T20:54:55.158Z,99467.44
2023-05-07T20:57:24.153Z,99457.13
2023-05-07T20:59:50.806Z,99460.91
2023-05-07T21:02:17.453Z,99471.03
2023-05-07T21:04:44.084Z,99486.16
2023-05-07T21:07:10.840Z,99464.69
2023-05-07T21:09:37.453Z,99466.38
2023-05-07T21:12:04.488Z,99477.47
2023-05-07T21:14:31.000Z,99475.09
2023-05-07T21:16:59.541Z,99482.00
2023-05-07T21:19:26.642Z,99472.63
2023-05-07T21:21:57.609Z,99476.31
2023-05-07T21:24:25.287Z,99480.47
2023-05-07T21:26:55.351Z,99482.09
2023-05-07T21:29:22.241Z,99474.13
2023-05-07T21:31:49.407Z,99490.41
2023-05-07T21:34:16.393Z,99484.72
2023-05-07T21:36:46.042Z,99483.03
2023-05-07T21:39:12.987Z,99477.72
2023-05-07T21:41:41.918Z,99483.41
2023-05-07T21:44:09.002Z,99483.13
2023-05-07T21:46:35.645Z,99482.25
2023-05-07T21:49:02.264Z,99473.94
2023-05-07T21:51:29.671Z,99492.84
2023-05-07T21:53:56.356Z,99487.66
2023-05-07T21:56:22.866Z,99497.41
2023-05-07T21:58:49.489Z,99494.91
2023-05-07T22:01:16.087Z,99491.22
2023-05-07T22:03:45.866Z,99485.28
2023-05-07T22:06:12.474Z,99487.84
2023-05-07T22:08:39.184Z,99495.78
2023-05-07T22:11:06.775Z,99471.09
2023-05-07T22:13:36.100Z,99489.63
2023-05-07T22:16:04.034Z,99490.66
2023-05-07T22:18:30.693Z,99490.88
2023-05-07T22:20:57.187Z,99488.88
2023-05-07T22:23:24.133Z,99492.47
2023-05-07T22:25:50.647Z,99501.34
2023-05-07T22:28:17.389Z,99496.06
2023-05-07T22:30:44.168Z,99504.94
2023-05-07T22:33:10.816Z,99487.81
2023-05-07T22:35:37.297Z,99499.63
2023-05-07T22:38:03.936Z,99474.75
2023-05-07T22:40:30.436Z,99455.47
2023-05-07T22:42:57.128Z,99494.44
2023-05-07T22:45:23.718Z,99481.75
2023-05-07T22:47:53.386Z,99495.38
2023-05-07T22:50:20.032Z,99496.22
2023-05-07T22:52:46.616Z,99491.91
2023-05-07T22:55:13.397Z,99489.25
2023-05-07T22:57:40.043Z,99488.38
2023-05-07T23:00:07.488Z,99479.50
2023-05-07T23:02:34.096Z,99475.63
2023-05-07T23:05:01.653Z,99487.53
2023-05-07T23:07:28.538Z,99483.19
2023-05-07T23:09:55.184Z,99476.47
2023-05-07T23:12:21.678Z,99484.97
2023-05-07T23:14:48.284Z,99478.00
2023-05-07T23:17:14.886Z,99427.88
2023-05-07T23:19:41.825Z,99481.75
2023-05-07T23:22:08.534Z,99473.75
2023-05-07T23:24:35.095Z,99469.28
2023-05-07T23:27:05.470Z,99461.88
2023-05-07T23:29:32.735Z,99471.09
2023-05-07T23:31:59.862Z,99465.03
2023-05-07T23:34:26.834Z,99465.22
2023-05-07T23:36:54.014Z,99472.88
2023-05-07T23:39:20.834Z,99466.06
2023-05-07T23:41:47.808Z,99465.88
2023-05-07T23:44:16.476Z,99462.41
2023-05-07T23:46:46.407Z,99458.97
2023-05-07T23:49:13.049Z,99446.78
2023-05-07T23:51:39.563Z,99447.81
2023-05-07T23:54:06.665Z,99465.97
2023-05-07T23:56:33.532Z,99461.06
2023-05-07T23:59:00.271Z,99463.44
